createdAt,value
2023-02-19T00:01:25.318Z,10.13
2023-02-19T00:03:54.803Z,10.20
2023-02-19T00:06:24.043Z,10.13
2023-02-19T00:08:51.007Z,10.06
2023-02-19T00:11:20.442Z,10.15
2023-02-19T00:13:49.610Z,10.28
2023-02-19T00:16:33.501Z,9.90
2023-02-19T00:19:01.971Z,9.97
2023-02-19T00:21:29.821Z,9.94
2023-02-19T00:23:59.423Z,10.07
2023-02-19T00:26:26.409Z,10.32
2023-02-19T00:28:54.493Z,10.23
2023-02-19T00:31:24.051Z,10.31
2023-02-19T00:33:53.351Z,10.21
2023-02-19T00:36:20.756Z,10.23
2023-02-19T00:38:48.185Z,10.16
2023-02-19T00:41:19.159Z,10.13
2023-02-19T00:43:48.809Z,10.26
2023-02-19T00:46:19.203Z,10.03
2023-02-19T00:48:46.140Z,10.11
2023-02-19T00:51:13.118Z,9.97
2023-02-19T00:53:39.999Z,10.23
2023-02-19T00:56:06.955Z,10.08
2023-02-19T00:58:33.703Z,10.15
2023-02-19T01:01:00.650Z,10.18
2023-02-19T01:03:27.462Z,10.31
2023-02-19T01:05:54.646Z,10.32
2023-02-19T01:08:21.910Z,10.28
2023-02-19T01:10:48.958Z,10.29
2023-02-19T01:13:15.835Z,10.28
2023-02-19T01:15:42.483Z,10.16
2023-02-19T01:18:09.283Z,10.21
2023-02-19T01:20:39.437Z,10.41
2023-02-19T01:23:06.292Z,10.22
2023-02-19T01:25:32.886Z,10.26
2023-02-19T01:27:59.454Z,10.18
2023-02-19T01:30:26.302Z,10.26
2023-02-19T01:32:52.901Z,10.34
2023-02-19T01:35:19.602Z,10.40
2023-02-19T01:37:46.194Z,10.37
2023-02-19T01:40:12.775Z,10.30
2023-02-19T01:42:43.909Z,10.32
2023-02-19T01:45:34.085Z,10.34
2023-02-19T01:48:23.056Z,10.32
2023-02-19T01:51:00.248Z,10.30
2023-02-19T01:53:32.119Z,10.35
2023-02-19T01:56:00.498Z,10.35
2023-02-19T01:58:32.125Z,10.45
2023-02-19T02:01:03.004Z,10.21
2023-02-19T02:03:30.923Z,10.38
2023-02-19T02:06:19.217Z,10.38
2023-02-19T02:09:04.631Z,10.47
2023-02-19T02:11:31.393Z,10.39
2023-02-19T02:13:58.790Z,10.49
2023-02-19T02:16:30.337Z,10.39
2023-02-19T02:19:20.931Z,10.25
2023-02-19T02:21:47.450Z,10.37
2023-02-19T02:24:51.763Z,10.36
2023-02-19T02:27:37.117Z,10.17
2023-02-19T02:30:18.128Z,10.38
2023-02-19T02:33:23.771Z,10.49
2023-02-19T02:35:54.956Z,10.20
2023-02-19T02:38:25.445Z,10.35
2023-02-19T02:40:54.514Z,10.23
2023-02-19T02:43:21.763Z,10.44
2023-02-19T02:45:48.746Z,10.34
2023-02-19T02:48:45.161Z,10.16
2023-02-19T02:51:20.113Z,10.21
2023-02-19T02:54:37.104Z,10.39
2023-02-19T02:57:14.683Z,10.33
2023-02-19T02:59:49.205Z,10.17
2023-02-19T03:02:31.363Z,10.29
2023-02-19T03:05:41.597Z,10.31
2023-02-19T03:08:37.905Z,10.26
2023-02-19T03:11:26.593Z,10.47
2023-02-19T03:14:39.724Z,10.25
2023-02-19T03:17:40.629Z,10.17
2023-02-19T03:20:13.055Z,10.14
2023-02-19T03:22:42.096Z,10.48
2023-02-19T03:25:38.494Z,10.11
2023-02-19T03:28:09.553Z,10.11
2023-02-19T03:30:40.813Z,10.18
2023-02-19T03:33:18.778Z,9.93
2023-02-19T03:35:50.885Z,10.07
2023-02-19T03:38:23.386Z,9.98
2023-02-19T03:41:10.622Z,10.02
2023-02-19T03:44:12.854Z,9.77
2023-02-19T03:47:08.308Z,9.89
2023-02-19T03:49:49.219Z,10.06
2023-02-19T03:52:47.071Z,9.98
2023-02-19T03:55:35.681Z,9.95
2023-02-19T03:58:13.264Z,9.79
2023-02-19T04:00:49.197Z,9.95
2023-02-19T04:03:37.238Z,10.04
2023-02-19T04:06:11.589Z,9.82
2023-02-19T04:08:40.844Z,10.10
2023-02-19T04:11:09.764Z,9.95
2023-02-19T04:13:50.932Z,10.08
2023-02-19T04:16:24.223Z,9.85
2023-02-19T04:18:54.563Z,9.75
2023-02-19T04:21:22.985Z,9.79
2023-02-19T04:23:50.158Z,10.01
2023-02-19T04:26:20.077Z,10.20
2023-02-19T04:28:47.120Z,9.59
2023-02-19T04:31:14.435Z,9.82
2023-02-19T04:33:41.342Z,9.67
2023-02-19T04:36:10.890Z,9.66
2023-02-19T04:38:40.331Z,9.75
2023-02-19T04:41:06.959Z,9.67
2023-02-19T04:43:33.608Z,10.12
2023-02-19T04:46:01.754Z,9.85
2023-02-19T04:48:28.887Z,9.68
2023-02-19T04:50:55.700Z,9.70
2023-02-19T04:53:22.285Z,9.85
2023-02-19T04:55:48.985Z,9.84
2023-02-19T04:58:15.519Z,9.68
2023-02-19T05:00:42.090Z,9.76
2023-02-19T05:03:08.662Z,9.78
2023-02-19T05:05:35.223Z,9.90
2023-02-19T05:08:01.788Z,9.85
2023-02-19T05:10:28.394Z,9.92
2023-02-19T05:12:57.802Z,9.79
2023-02-19T05:15:24.411Z,9.48
2023-02-19T05:17:50.998Z,9.93
2023-02-19T05:20:17.698Z,9.58
2023-02-19T05:22:44.237Z,9.62
2023-02-19T05:25:10.856Z,9.78
2023-02-19T05:27:37.546Z,9.71
2023-02-19T05:30:04.432Z,9.73
2023-02-19T05:32:31.014Z,9.49
2023-02-19T05:34:57.667Z,9.67
2023-02-19T05:37:24.300Z,9.53
2023-02-19T05:39:50.895Z,9.47
2023-02-19T05:42:17.492Z,9.75
2023-02-19T05:44:44.118Z,9.72
2023-02-19T05:47:10.778Z,9.82
2023-02-19T05:49:37.566Z,9.54
2023-02-19T05:52:04.399Z,9.82
2023-02-19T05:54:31.997Z,9.72
2023-02-19T05:56:58.568Z,9.54
2023-02-19T05:59:26.416Z,9.59
2023-02-19T06:01:54.705Z,9.36
2023-02-19T06:04:21.567Z,9.50
2023-02-19T06:06:48.654Z,9.33
2023-02-19T06:09:15.264Z,9.61
2023-02-19T06:11:43.306Z,9.31
2023-02-19T06:14:12.908Z,9.50
2023-02-19T06:16:39.376Z,9.49
2023-02-19T06:19:06.055Z,9.37
2023-02-19T06:21:32.707Z,9.39
2023-02-19T06:23:59.332Z,9.29
2023-02-19T06:26:26.257Z,9.12
2023-02-19T06:28:54.541Z,9.07
2023-02-19T06:31:23.108Z,9.38
2023-02-19T06:33:50.784Z,9.41
2023-02-19T06:36:19.803Z,9.70
2023-02-19T06:38:46.507Z,9.24
2023-02-19T06:41:14.225Z,9.39
2023-02-19T06:43:41.552Z,9.42
2023-02-19T06:46:08.289Z,9.29
2023-02-19T06:48:35.693Z,9.53
2023-02-19T06:51:02.548Z,9.38
2023-02-19T06:53:29.366Z,9.56
2023-02-19T06:55:57.836Z,9.59
2023-02-19T06:58:24.499Z,9.23
2023-02-19T07:00:51.199Z,9.31
2023-02-19T07:03:17.865Z,9.38
2023-02-19T07:05:44.516Z,9.52
2023-02-19T07:08:11.240Z,9.40
2023-02-19T07:10:37.812Z,9.32
2023-02-19T07:13:04.684Z,9.25
2023-02-19T07:15:31.315Z,9.29
2023-02-19T07:17:59.294Z,9.29
2023-02-19T07:20:26.069Z,9.09
2023-02-19T07:22:52.594Z,8.67
2023-02-19T07:25:19.197Z,8.45
2023-02-19T07:27:45.752Z,8.09
2023-02-19T07:30:12.882Z,7.83
2023-02-19T07:32:42.887Z,7.41
2023-02-19T07:35:09.819Z,7.44
2023-02-19T07:37:36.610Z,7.38
2023-02-19T07:40:03.611Z,7.43
2023-02-19T07:42:30.294Z,7.38
2023-02-19T07:44:58.438Z,7.34
2023-02-19T07:47:26.844Z,7.16
2023-02-19T07:49:53.405Z,7.48
2023-02-19T07:52:19.937Z,7.34
2023-02-19T07:54:46.555Z,7.58
2023-02-19T07:57:13.791Z,7.56
2023-02-19T07:59:40.544Z,7.78
2023-02-19T08:02:39.232Z,7.65
2023-02-19T08:05:06.766Z,7.55
2023-02-19T08:07:35.234Z,7.34
2023-02-19T08:10:21.469Z,7.32
2023-02-19T08:13:17.827Z,7.24
2023-02-19T08:15:44.937Z,7.09
2023-02-19T08:18:12.329Z,7.27
2023-02-19T08:20:39.047Z,7.01
2023-02-19T08:23:06.854Z,7.42
2023-02-19T08:25:33.674Z,7.32
2023-02-19T08:28:01.011Z,7.16
2023-02-19T08:30:29.467Z,7.50
2023-02-19T08:32:56.423Z,7.31
2023-02-19T08:35:23.091Z,7.21
2023-02-19T08:37:49.697Z,7.44
2023-02-19T08:40:16.715Z,7.20
2023-02-19T08:42:43.375Z,7.25
2023-02-19T08:45:10.269Z,7.08
2023-02-19T08:47:37.236Z,7.06
2023-02-19T08:50:05.529Z,7.05
2023-02-19T08:52:32.434Z,7.06
2023-02-19T08:54:59.402Z,7.22
2023-02-19T08:57:26.604Z,7.03
2023-02-19T08:59:53.280Z,7.01
2023-02-19T09:02:19.887Z,7.15
2023-02-19T09:04:46.487Z,7.26
2023-02-19T09:07:13.439Z,7.05
2023-02-19T09:09:40.556Z,7.24
2023-02-19T09:12:12.369Z,7.25
2023-02-19T09:14:39.156Z,7.12
2023-02-19T09:17:07.091Z,7.23
2023-02-19T09:19:34.516Z,7.25
2023-02-19T09:22:01.175Z,7.22
2023-02-19T09:24:27.722Z,7.08
2023-02-19T09:26:55.183Z,6.86
2023-02-19T09:29:24.553Z,7.08
2023-02-19T09:31:51.216Z,7.17
2023-02-19T09:34:17.813Z,7.24
2023-02-19T09:36:44.361Z,7.44
2023-02-19T09:39:12.571Z,7.34
2023-02-19T09:41:52.525Z,7.33
2023-02-19T09:44:34.378Z,7.41
2023-02-19T09:47:01.819Z,7.24
2023-02-19T09:49:33.751Z,7.45
2023-02-19T09:52:14.563Z,7.22
2023-02-19T09:54:42.446Z,7.25
2023-02-19T09:57:15.513Z,7.26
2023-02-19T09:59:45.720Z,7.43
2023-02-19T10:02:16.650Z,7.14
2023-02-19T10:04:45.795Z,7.32
2023-02-19T10:07:15.052Z,7.27
2023-02-19T10:09:42.037Z,7.38
2023-02-19T10:12:15.979Z,7.34
2023-02-19T10:14:48.111Z,7.29
2023-02-19T10:17:23.829Z,7.38
2023-02-19T10:19:52.326Z,7.35
2023-02-19T10:22:19.919Z,7.51
2023-02-19T10:24:51.941Z,7.40
2023-02-19T10:27:19.203Z,7.52
2023-02-19T10:29:48.923Z,7.57
2023-02-19T10:32:20.931Z,7.79
2023-02-19T10:34:47.784Z,7.60
2023-02-19T10:37:17.347Z,7.40
2023-02-19T10:39:43.857Z,7.44
2023-02-19T10:42:19.369Z,7.60
2023-02-19T10:44:51.398Z,7.42
2023-02-19T10:47:22.297Z,7.64
2023-02-19T10:49:50.923Z,7.62
2023-02-19T10:52:36.733Z,7.27
2023-02-19T10:55:23.253Z,7.47
2023-02-19T10:57:50.508Z,7.39
2023-02-19T11:00:35.830Z,7.57
2023-02-19T11:03:24.267Z,7.90
2023-02-19T11:06:03.631Z,8.16
2023-02-19T11:08:34.182Z,8.30
2023-02-19T11:11:00.795Z,8.40
2023-02-19T11:13:37.953Z,8.50
2023-02-19T11:16:05.410Z,8.38
2023-02-19T11:18:33.365Z,8.23
2023-02-19T11:21:06.180Z,8.37
2023-02-19T11:23:35.700Z,8.36
2023-02-19T11:26:06.509Z,8.63
2023-02-19T11:28:38.135Z,8.52
2023-02-19T11:31:28.301Z,8.57
2023-02-19T11:34:21.098Z,8.54
2023-02-19T11:37:07.711Z,8.44
2023-02-19T11:39:34.711Z,8.50
2023-02-19T11:42:21.621Z,8.71
2023-02-19T11:45:09.742Z,8.91
2023-02-19T11:48:20.780Z,8.86
2023-02-19T11:51:05.074Z,8.88
2023-02-19T11:53:34.595Z,8.91
2023-02-19T11:56:10.266Z,9.05
2023-02-19T11:58:55.401Z,9.10
2023-02-19T12:01:29.454Z,9.29
2023-02-19T12:04:26.932Z,9.42
2023-02-19T12:07:12.169Z,9.47
2023-02-19T12:10:09.506Z,8.87
2023-02-19T12:13:07.364Z,9.22
2023-02-19T12:16:03.986Z,9.17
2023-02-19T12:18:54.812Z,9.30
2023-02-19T12:22:04.330Z,9.66
2023-02-19T12:24:49.307Z,9.72
2023-02-19T12:27:21.620Z,9.64
2023-02-19T12:29:51.276Z,9.55
2023-02-19T12:32:23.834Z,9.12
2023-02-19T12:35:28.136Z,9.22
2023-02-19T12:38:03.819Z,9.18
2023-02-19T12:40:43.304Z,9.24
2023-02-19T12:43:13.845Z,9.40
2023-02-19T12:45:43.134Z,9.50
2023-02-19T12:48:14.870Z,9.59
2023-02-19T12:50:43.821Z,9.25
2023-02-19T12:53:43.689Z,9.36
2023-02-19T12:56:34.400Z,9.10
2023-02-19T12:59:07.208Z,8.95
2023-02-19T13:01:44.050Z,8.91
2023-02-19T13:04:26.017Z,9.32
2023-02-19T13:07:09.120Z,9.57
2023-02-19T13:09:48.971Z,9.58
2023-02-19T13:12:23.597Z,9.25
2023-02-19T13:15:16.184Z,9.55
2023-02-19T13:17:50.475Z,9.52
2023-02-19T13:20:36.831Z,9.82
2023-02-19T13:23:41.053Z,9.75
2023-02-19T13:26:26.406Z,9.68
2023-02-19T13:28:59.450Z,9.59
2023-02-19T13:31:53.544Z,9.76
2023-02-19T13:34:41.400Z,9.90
2023-02-19T13:37:09.662Z,9.81
2023-02-19T13:39:36.407Z,9.75
2023-02-19T13:42:04.095Z,9.78
2023-02-19T13:44:34.332Z,9.96
2023-02-19T13:47:01.050Z,9.97
2023-02-19T13:49:27.545Z,9.64
2023-02-19T13:52:24.398Z,9.77
2023-02-19T13:54:51.338Z,9.55
2023-02-19T13:57:17.841Z,9.79
2023-02-19T13:59:45.274Z,9.87
2023-02-19T14:02:22.970Z,9.26
2023-02-19T14:05:04.853Z,9.69
2023-02-19T14:07:51.730Z,9.36
2023-02-19T14:10:46.079Z,9.68
2023-02-19T14:13:32.562Z,9.33
2023-02-19T14:15:59.550Z,9.61
2023-02-19T14:18:44.641Z,9.53
2023-02-19T14:21:26.568Z,9.98
2023-02-19T14:23:56.230Z,9.98
2023-02-19T14:26:25.231Z,9.89
2023-02-19T14:28:53.652Z,9.84
2023-02-19T14:31:31.185Z,9.85
2023-02-19T14:34:19.614Z,9.61
2023-02-19T14:36:52.484Z,9.69
2023-02-19T14:39:40.333Z,9.42
2023-02-19T14:42:14.202Z,9.62
2023-02-19T14:44:48.555Z,9.76
2023-02-19T14:47:19.101Z,9.67
2023-02-19T14:50:08.937Z,9.57
2023-02-19T14:52:45.746Z,9.57
2023-02-19T14:55:32.512Z,9.62
2023-02-19T14:58:01.764Z,9.77
2023-02-19T15:00:30.701Z,9.43
2023-02-19T15:02:59.754Z,9.62
2023-02-19T15:05:29.514Z,9.55
2023-02-19T15:08:02.000Z,9.76
2023-02-19T15:10:32.197Z,9.75
2023-02-19T15:13:08.248Z,9.64
2023-02-19T15:15:40.721Z,9.25
2023-02-19T15:18:13.950Z,9.42
2023-02-19T15:20:42.475Z,9.57
2023-02-19T15:23:12.231Z,9.49
2023-02-19T15:25:39.532Z,9.43
2023-02-19T15:28:24.231Z,9.55
2023-02-19T15:31:05.592Z,9.48
2023-02-19T15:33:32.477Z,9.22
2023-02-19T15:36:06.614Z,9.31
2023-02-19T15:38:34.064Z,9.60
2023-02-19T15:41:01.337Z,9.07
2023-02-19T15:43:30.615Z,9.36
2023-02-19T15:46:07.184Z,9.52
2023-02-19T15:48:43.014Z,9.50
2023-02-19T15:51:19.103Z,9.47
2023-02-19T15:53:51.244Z,9.42
2023-02-19T15:56:28.355Z,9.31
2023-02-19T15:59:00.243Z,9.34
2023-02-19T16:01:33.235Z,9.41
2023-02-19T16:04:00.444Z,9.28
2023-02-19T16:06:28.142Z,9.18
2023-02-19T16:09:01.889Z,9.21
2023-02-19T16:11:30.354Z,9.27
2023-02-19T16:14:16.802Z,9.14
2023-02-19T16:16:46.151Z,9.31
2023-02-19T16:19:13.181Z,8.98
2023-02-19T16:21:43.802Z,9.24
2023-02-19T16:24:25.883Z,8.82
2023-02-19T16:26:52.710Z,9.24
2023-02-19T16:29:20.731Z,9.20
2023-02-19T16:32:16.957Z,9.01
2023-02-19T16:34:51.627Z,9.12
2023-02-19T16:37:41.207Z,9.28
2023-02-19T16:40:07.759Z,9.39
2023-02-19T16:42:36.004Z,9.53
2023-02-19T16:45:02.941Z,9.32
2023-02-19T16:47:37.152Z,9.19
2023-02-19T16:50:12.703Z,8.99
2023-02-19T16:52:57.810Z,9.19
2023-02-19T16:55:25.207Z,9.22
2023-02-19T16:57:52.051Z,8.55
2023-02-19T17:00:26.889Z,8.25
2023-02-19T17:02:59.639Z,8.42
2023-02-19T17:05:29.100Z,8.51
2023-02-19T17:07:55.796Z,8.58
2023-02-19T17:10:25.722Z,8.83
2023-02-19T17:12:55.367Z,8.37
2023-02-19T17:15:22.130Z,8.26
2023-02-19T17:17:49.460Z,8.63
2023-02-19T17:20:16.086Z,8.50
2023-02-19T17:22:43.208Z,8.61
2023-02-19T17:25:10.312Z,8.71
2023-02-19T17:27:37.124Z,8.51
2023-02-19T17:30:09.924Z,8.47
2023-02-19T17:32:36.626Z,8.47
2023-02-19T17:35:03.406Z,8.59
2023-02-19T17:37:30.023Z,8.42
2023-02-19T17:39:56.615Z,8.30
2023-02-19T17:42:23.860Z,8.42
2023-02-19T17:44:51.882Z,8.58
2023-02-19T17:47:18.739Z,8.48
2023-02-19T17:49:45.466Z,8.66
2023-02-19T17:52:13.651Z,8.57
2023-02-19T17:54:40.256Z,8.67
2023-02-19T17:57:06.879Z,8.55
2023-02-19T17:59:33.492Z,8.54
2023-02-19T18:02:00.100Z,8.53
2023-02-19T18:04:26.803Z,8.58
2023-02-19T18:06:54.374Z,8.55
2023-02-19T18:09:22.361Z,8.57
2023-02-19T18:11:49.334Z,8.56
2023-02-19T18:14:16.072Z,8.48
2023-02-19T18:16:50.620Z,8.32
2023-02-19T18:19:17.711Z,8.50
2023-02-19T18:21:44.252Z,8.36
2023-02-19T18:24:10.952Z,8.28
2023-02-19T18:26:37.894Z,8.25
2023-02-19T18:29:05.484Z,8.19
2023-02-19T18:31:37.509Z,8.33
2023-02-19T18:34:05.171Z,8.43
2023-02-19T18:36:32.821Z,8.17
2023-02-19T18:38:59.482Z,7.88
2023-02-19T18:41:26.137Z,8.11
2023-02-19T18:43:52.715Z,8.21
2023-02-19T18:46:21.200Z,8.30
2023-02-19T18:48:47.936Z,8.28
2023-02-19T18:51:14.588Z,8.19
2023-02-19T18:53:42.994Z,8.31
2023-02-19T18:56:09.708Z,8.18
2023-02-19T18:58:36.329Z,8.20
2023-02-19T19:01:03.166Z,8.12
2023-02-19T19:03:30.996Z,8.13
2023-02-19T19:05:58.545Z,7.94
2023-02-19T19:08:25.325Z,7.98
2023-02-19T19:10:51.916Z,7.85
2023-02-19T19:13:18.569Z,8.09
2023-02-19T19:15:50.243Z,8.16
2023-02-19T19:18:16.921Z,8.23
2023-02-19T19:20:43.508Z,8.28
2023-02-19T19:23:10.068Z,7.92
2023-02-19T19:25:37.420Z,8.12
2023-02-19T19:28:04.199Z,8.07
2023-02-19T19:30:30.953Z,8.09
2023-02-19T19:32:58.022Z,7.78
2023-02-19T19:35:24.656Z,7.67
2023-02-19T19:37:51.452Z,7.99
2023-02-19T19:40:18.742Z,7.98
2023-02-19T19:42:46.055Z,7.96
2023-02-19T19:45:15.659Z,8.13
2023-02-19T19:47:42.536Z,8.09
2023-02-19T19:50:15.684Z,7.78
2023-02-19T19:52:42.349Z,7.94
2023-02-19T19:55:11.944Z,8.06
2023-02-19T19:57:40.748Z,8.04
2023-02-19T20:00:09.052Z,7.87
2023-02-19T20:02:46.170Z,8.10
2023-02-19T20:05:13.994Z,7.92
2023-02-19T20:07:40.589Z,7.74
2023-02-19T20:10:08.180Z,7.68
2023-02-19T20:12:34.734Z,7.46
2023-02-19T20:15:01.513Z,7.44
2023-02-19T20:17:28.888Z,7.50
2023-02-19T20:19:55.618Z,7.63
2023-02-19T20:22:22.265Z,7.85
2023-02-19T20:24:53.307Z,7.76
2023-02-19T20:27:21.830Z,7.99
2023-02-19T20:29:48.819Z,8.09
2023-02-19T20:32:18.503Z,8.14
2023-02-19T20:34:45.979Z,7.81
2023-02-19T20:37:12.717Z,7.66
2023-02-19T20:39:39.329Z,7.77
2023-02-19T20:42:06.724Z,7.71
2023-02-19T20:44:34.107Z,7.75
2023-02-19T20:47:01.517Z,7.80
2023-02-19T20:49:31.029Z,7.87
2023-02-19T20:52:04.922Z,7.93
2023-02-19T20:54:34.873Z,7.86
2023-02-19T20:57:04.285Z,7.82
2023-02-19T20:59:35.225Z,7.73
2023-02-19T21:02:07.118Z,7.72
2023-02-19T21:04:38.509Z,7.79
2023-02-19T21:07:05.180Z,7.59
2023-02-19T21:09:32.160Z,7.79
2023-02-19T21:11:59.970Z,7.60
2023-02-19T21:14:26.746Z,7.98
2023-02-19T21:16:53.743Z,7.55
2023-02-19T21:19:21.697Z,7.67
2023-02-19T21:21:48.406Z,7.55
2023-02-19T21:24:15.673Z,7.59
2023-02-19T21:26:43.574Z,7.68
2023-02-19T21:29:15.829Z,7.69
2023-02-19T21:31:44.903Z,7.58
2023-02-19T21:34:13.668Z,7.41
2023-02-19T21:36:40.641Z,7.65
2023-02-19T21:39:09.490Z,7.51
2023-02-19T21:41:36.614Z,7.55
2023-02-19T21:44:03.964Z,7.52
2023-02-19T21:46:32.843Z,7.44
2023-02-19T21:49:00.026Z,7.53
2023-02-19T21:51:36.168Z,7.36
2023-02-19T21:54:04.256Z,7.52
2023-02-19T21:56:35.868Z,7.68
2023-02-19T21:59:03.467Z,7.45
2023-02-19T22:01:33.808Z,7.40
2023-02-19T22:04:00.510Z,7.24
2023-02-19T22:06:29.347Z,7.47
2023-02-19T22:08:56.585Z,7.19
2023-02-19T22:11:23.248Z,7.61
2023-02-19T22:13:50.607Z,7.59
2023-02-19T22:16:18.147Z,7.38
2023-02-19T22:18:54.068Z,7.40
2023-02-19T22:21:21.860Z,7.25
2023-02-19T22:23:50.630Z,7.17
2023-02-19T22:26:26.982Z,7.40
2023-02-19T22:28:55.258Z,7.47
2023-02-19T22:31:24.360Z,7.38
2023-02-19T22:33:51.827Z,7.46
2023-02-19T22:36:21.600Z,7.48
2023-02-19T22:38:49.225Z,7.51
2023-02-19T22:41:17.679Z,7.23
2023-02-19T22:43:45.102Z,7.53
2023-02-19T22:46:18.672Z,7.73
2023-02-19T22:48:46.168Z,7.59
2023-02-19T22:51:16.583Z,7.35
2023-02-19T22:53:47.989Z,7.25
2023-02-19T22:56:16.162Z,7.52
2023-02-19T22:58:43.531Z,7.17
2023-02-19T23:01:12.391Z,7.12
2023-02-19T23:03:53.527Z,7.16
2023-02-19T23:06:26.119Z,7.27
2023-02-19T23:08:55.248Z,7.16
2023-02-19T23:11:24.327Z,7.05
2023-02-19T23:13:51.017Z,7.05
2023-02-19T23:16:17.723Z,7.31
2023-02-19T23:18:44.792Z,7.12
2023-02-19T23:21:11.747Z,7.07
2023-02-19T23:23:43.947Z,7.06
2023-02-19T23:26:10.879Z,6.91
2023-02-19T23:28:39.623Z,6.95
2023-02-19T23:31:06.765Z,6.76
2023-02-19T23:33:33.559Z,6.76
2023-02-19T23:36:00.125Z,6.86
2023-02-19T23:38:26.781Z,7.03
2023-02-19T23:40:53.403Z,6.85
2023-02-19T23:43:21.057Z,6.53
2023-02-19T23:45:47.624Z,6.75
2023-02-19T23:48:14.210Z,6.97
2023-02-19T23:50:40.799Z,6.78
2023-02-19T23:53:07.608Z,6.95
2023-02-19T23:55:34.216Z,6.87
2023-02-19T23:58:00.859Z,6.88
